sensor_id;sensor_type;location;lat;lon;timestamp;P1;durP1;ratioP1;P2;durP2;ratioP2
3543;SDS011;1786;52.870;9.578;2023-06-10T00:02:01;5.67;;;4.50;;
3543;SDS011;1786;52.870;9.578;2023-06-10T00:04:29;8.30;;;3.90;;
3543;SDS011;1786;52.870;9.578;2023-06-10T00:06:57;4.03;;;3.73;;
3543;SDS011;1786;52.870;9.578;2023-06-10T00:09:23;10.93;;;4.40;;
3543;SDS011;1786;52.870;9.578;2023-06-10T00:11:50;4.57;;;3.50;;
3543;SDS011;1786;52.870;9.578;2023-06-10T00:14:17;10.40;;;3.77;;
3543;SDS011;1786;52.870;9.578;2023-06-10T00:16:44;7.00;;;4.33;;
3543;SDS011;1786;52.870;9.578;2023-06-10T00:19:12;7.50;;;4.20;;
3543;SDS011;1786;52.870;9.578;2023-06-10T00:21:41;8.17;;;4.07;;
3543;SDS011;1786;52.870;9.578;2023-06-10T00:24:11;5.00;;;4.13;;
3543;SDS011;1786;52.870;9.578;2023-06-10T00:26:40;8.13;;;3.57;;
3543;SDS011;1786;52.870;9.578;2023-06-10T00:29:07;7.80;;;3.40;;
3543;SDS011;1786;52.870;9.578;2023-06-10T00:31:35;5.13;;;3.80;;
3543;SDS011;1786;52.870;9.578;2023-06-10T00:34:06;10.03;;;4.70;;
3543;SDS011;1786;52.870;9.578;2023-06-10T00:36:33;6.60;;;4.03;;
3543;SDS011;1786;52.870;9.578;2023-06-10T00:39:02;8.00;;;3.73;;
3543;SDS011;1786;52.870;9.578;2023-06-10T00:41:30;7.80;;;3.70;;
3543;SDS011;1786;52.870;9.578;2023-06-10T00:43:58;6.83;;;4.30;;
3543;SDS011;1786;52.870;9.578;2023-06-10T00:46:24;4.60;;;3.40;;
3543;SDS011;1786;52.870;9.578;2023-06-10T00:48:54;7.63;;;3.60;;
3543;SDS011;1786;52.870;9.578;2023-06-10T00:51:22;9.23;;;4.13;;
3543;SDS011;1786;52.870;9.578;2023-06-10T00:53:49;12.27;;;3.60;;
3543;SDS011;1786;52.870;9.578;2023-06-10T00:56:16;4.60;;;3.80;;
3543;SDS011;1786;52.870;9.578;2023-06-10T00:58:42;6.10;;;4.10;;
3543;SDS011;1786;52.870;9.578;2023-06-10T01:01:10;4.13;;;3.20;;
3543;SDS011;1786;52.870;9.578;2023-06-10T01:03:39;11.43;;;3.50;;
3543;SDS011;1786;52.870;9.578;2023-06-10T01:06:11;6.33;;;3.90;;
3543;SDS011;1786;52.870;9.578;2023-06-10T01:09:00;7.57;;;4.53;;
3543;SDS011;1786;52.870;9.578;2023-06-10T01:11:41;10.80;;;3.43;;
3543;SDS011;1786;52.870;9.578;2023-06-10T01:14:13;5.33;;;3.67;;
3543;SDS011;1786;52.870;9.578;2023-06-10T01:16:41;6.43;;;4.43;;
3543;SDS011;1786;52.870;9.578;2023-06-10T01:19:09;5.77;;;4.17;;
3543;SDS011;1786;52.870;9.578;2023-06-10T01:21:37;5.80;;;3.73;;
3543;SDS011;1786;52.870;9.578;2023-06-10T01:24:05;9.70;;;4.37;;
3543;SDS011;1786;52.870;9.578;2023-06-10T01:26:34;6.97;;;4.37;;
3543;SDS011;1786;52.870;9.578;2023-06-10T01:29:22;7.13;;;4.90;;
3543;SDS011;1786;52.870;9.578;2023-06-10T01:31:57;4.77;;;3.50;;
3543;SDS011;1786;52.870;9.578;2023-06-10T01:34:30;14.40;;;4.17;;
3543;SDS011;1786;52.870;9.578;2023-06-10T01:36:58;7.73;;;4.43;;
3543;SDS011;1786;52.870;9.578;2023-06-10T01:39:25;8.17;;;3.90;;
3543;SDS011;1786;52.870;9.578;2023-06-10T01:41:53;8.47;;;4.30;;
3543;SDS011;1786;52.870;9.578;2023-06-10T01:44:23;6.53;;;4.07;;
3543;SDS011;1786;52.870;9.578;2023-06-10T01:46:50;5.43;;;4.23;;
3543;SDS011;1786;52.870;9.578;2023-06-10T01:49:17;6.23;;;4.40;;
3543;SDS011;1786;52.870;9.578;2023-06-10T01:51:44;8.00;;;4.67;;
3543;SDS011;1786;52.870;9.578;2023-06-10T01:54:11;6.30;;;4.20;;
3543;SDS011;1786;52.870;9.578;2023-06-10T01:56:38;8.10;;;4.10;;
3543;SDS011;1786;52.870;9.578;2023-06-10T01:59:07;5.37;;;4.00;;
3543;SDS011;1786;52.870;9.578;2023-06-10T02:01:34;8.23;;;4.50;;
3543;SDS011;1786;52.870;9.578;2023-06-10T02:04:01;7.63;;;3.90;;
3543;SDS011;1786;52.870;9.578;2023-06-10T02:06:31;7.37;;;4.53;;
3543;SDS011;1786;52.870;9.578;2023-06-10T02:08:57;11.83;;;4.83;;
3543;SDS011;1786;52.870;9.578;2023-06-10T02:11:27;6.77;;;4.73;;
3543;SDS011;1786;52.870;9.578;2023-06-10T02:13:54;8.50;;;4.90;;
3543;SDS011;1786;52.870;9.578;2023-06-10T02:16:21;6.47;;;4.37;;
3543;SDS011;1786;52.870;9.578;2023-06-10T02:18:48;11.70;;;4.00;;
3543;SDS011;1786;52.870;9.578;2023-06-10T02:21:15;6.63;;;4.50;;
3543;SDS011;1786;52.870;9.578;2023-06-10T02:23:41;7.67;;;4.43;;
3543;SDS011;1786;52.870;9.578;2023-06-10T02:26:08;7.27;;;4.53;;
3543;SDS011;1786;52.870;9.578;2023-06-10T02:28:35;5.10;;;4.50;;
3543;SDS011;1786;52.870;9.578;2023-06-10T02:31:02;9.30;;;5.03;;
3543;SDS011;1786;52.870;9.578;2023-06-10T02:33:29;12.67;;;4.60;;
3543;SDS011;1786;52.870;9.578;2023-06-10T02:35:56;7.20;;;4.70;;
3543;SDS011;1786;52.870;9.578;2023-06-10T02:38:24;5.20;;;4.20;;
3543;SDS011;1786;52.870;9.578;2023-06-10T02:40:53;11.53;;;4.37;;
3543;SDS011;1786;52.870;9.578;2023-06-10T02:43:21;6.80;;;5.07;;
3543;SDS011;1786;52.870;9.578;2023-06-10T02:45:48;8.80;;;4.70;;
3543;SDS011;1786;52.870;9.578;2023-06-10T02:48:16;8.00;;;4.90;;
3543;SDS011;1786;52.870;9.578;2023-06-10T02:50:43;6.87;;;4.73;;
3543;SDS011;1786;52.870;9.578;2023-06-10T02:53:26;9.80;;;4.60;;
3543;SDS011;1786;52.870;9.578;2023-06-10T02:56:00;11.00;;;5.40;;
3543;SDS011;1786;52.870;9.578;2023-06-10T02:58:27;5.97;;;4.73;;
3543;SDS011;1786;52.870;9.578;2023-06-10T03:00:54;11.10;;;5.10;;
3543;SDS011;1786;52.870;9.578;2023-06-10T03:03:22;6.87;;;5.20;;
3543;SDS011;1786;52.870;9.578;2023-06-10T03:06:01;5.87;;;4.80;;
3543;SDS011;1786;52.870;9.578;2023-06-10T03:08:29;7.60;;;4.50;;
3543;SDS011;1786;52.870;9.578;2023-06-10T03:11:00;6.20;;;5.30;;
3543;SDS011;1786;52.870;9.578;2023-06-10T03:13:27;8.70;;;6.17;;
3543;SDS011;1786;52.870;9.578;2023-06-10T03:15:54;8.53;;;5.40;;
3543;SDS011;1786;52.870;9.578;2023-06-10T03:18:25;8.63;;;5.80;;
3543;SDS011;1786;52.870;9.578;2023-06-10T03:20:53;11.33;;;6.70;;
3543;SDS011;1786;52.870;9.578;2023-06-10T03:23:23;8.53;;;6.20;;
3543;SDS011;1786;52.870;9.578;2023-06-10T03:25:50;8.73;;;6.07;;
3543;SDS011;1786;52.870;9.578;2023-06-10T03:28:18;9.30;;;6.07;;
3543;SDS011;1786;52.870;9.578;2023-06-10T03:30:49;10.63;;;6.10;;
3543;SDS011;1786;52.870;9.578;2023-06-10T03:33:16;11.03;;;6.10;;
3543;SDS011;1786;52.870;9.578;2023-06-10T03:35:44;7.07;;;6.40;;
3543;SDS011;1786;52.870;9.578;2023-06-10T03:38:12;9.23;;;6.53;;
3543;SDS011;1786;52.870;9.578;2023-06-10T03:40:40;10.50;;;5.80;;
3543;SDS011;1786;52.870;9.578;2023-06-10T03:43:07;9.10;;;6.27;;
3543;SDS011;1786;52.870;9.578;2023-06-10T03:45:34;14.93;;;6.50;;
3543;SDS011;1786;52.870;9.578;2023-06-10T03:48:03;7.40;;;6.60;;
3543;SDS011;1786;52.870;9.578;2023-06-10T03:50:40;8.10;;;7.17;;
3543;SDS011;1786;52.870;9.578;2023-06-10T03:53:07;10.00;;;6.40;;
3543;SDS011;1786;52.870;9.578;2023-06-10T03:55:35;11.03;;;6.33;;
3543;SDS011;1786;52.870;9.578;2023-06-10T03:58:03;12.00;;;6.33;;
3543;SDS011;1786;52.870;9.578;2023-06-10T04:00:30;10.73;;;5.97;;
3543;SDS011;1786;52.870;9.578;2023-06-10T04:02:56;7.93;;;6.13;;
3543;SDS011;1786;52.870;9.578;2023-06-10T04:05:33;12.13;;;6.20;;
3543;SDS011;1786;52.870;9.578;2023-06-10T04:08:00;10.37;;;6.90;;
3543;SDS011;1786;52.870;9.578;2023-06-10T04:10:28;17.90;;;7.07;;
3543;SDS011;1786;52.870;9.578;2023-06-10T04:12:55;9.63;;;6.80;;
3543;SDS011;1786;52.870;9.578;2023-06-10T04:15:25;14.80;;;7.47;;
3543;SDS011;1786;52.870;9.578;2023-06-10T04:17:52;12.13;;;5.87;;
3543;SDS011;1786;52.870;9.578;2023-06-10T04:20:22;6.93;;;6.10;;
3543;SDS011;1786;52.870;9.578;2023-06-10T04:22:49;11.37;;;7.37;;
3543;SDS011;1786;52.870;9.578;2023-06-10T04:25:16;14.80;;;6.80;;
3543;SDS011;1786;52.870;9.578;2023-06-10T04:27:43;8.30;;;6.77;;
3543;SDS011;1786;52.870;9.578;2023-06-10T04:30:10;12.57;;;7.30;;
3543;SDS011;1786;52.870;9.578;2023-06-10T04:32:38;7.47;;;6.33;;
3543;SDS011;1786;52.870;9.578;2023-06-10T04:35:11;8.50;;;6.27;;
3543;SDS011;1786;52.870;9.578;2023-06-10T04:37:38;14.17;;;7.80;;
3543;SDS011;1786;52.870;9.578;2023-06-10T04:40:07;12.27;;;6.80;;
3543;SDS011;1786;52.870;9.578;2023-06-10T04:42:35;14.80;;;6.80;;
3543;SDS011;1786;52.870;9.578;2023-06-10T04:45:03;15.83;;;6.73;;
3543;SDS011;1786;52.870;9.578;2023-06-10T04:47:30;9.17;;;6.10;;
3543;SDS011;1786;52.870;9.578;2023-06-10T04:50:01;12.03;;;7.10;;
3543;SDS011;1786;52.870;9.578;2023-06-10T04:52:29;13.03;;;7.07;;
3543;SDS011;1786;52.870;9.578;2023-06-10T04:54:57;7.87;;;5.73;;
3543;SDS011;1786;52.870;9.578;2023-06-10T04:57:24;6.93;;;5.70;;
3543;SDS011;1786;52.870;9.578;2023-06-10T04:59:52;6.43;;;5.50;;
3543;SDS011;1786;52.870;9.578;2023-06-10T05:02:19;11.63;;;5.93;;
3543;SDS011;1786;52.870;9.578;2023-06-10T05:04:47;7.17;;;5.90;;
3543;SDS011;1786;52.870;9.578;2023-06-10T05:07:14;6.23;;;5.60;;
3543;SDS011;1786;52.870;9.578;2023-06-10T05:09:40;8.00;;;6.40;;
3543;SDS011;1786;52.870;9.578;2023-06-10T05:12:07;8.63;;;6.00;;
3543;SDS011;1786;52.870;9.578;2023-06-10T05:14:35;9.80;;;5.73;;
3543;SDS011;1786;52.870;9.578;2023-06-10T05:17:02;15.23;;;6.57;;
3543;SDS011;1786;52.870;9.578;2023-06-10T05:19:28;10.97;;;6.10;;
3543;SDS011;1786;52.870;9.578;2023-06-10T05:21:55;7.63;;;6.47;;
3543;SDS011;1786;52.870;9.578;2023-06-10T05:24:22;6.53;;;5.50;;
3543;SDS011;1786;52.870;9.578;2023-06-10T05:26:50;10.40;;;6.33;;
3543;SDS011;1786;52.870;9.578;2023-06-10T05:29:16;7.97;;;6.90;;
3543;SDS011;1786;52.870;9.578;2023-06-10T05:31:43;10.67;;;5.70;;
3543;SDS011;1786;52.870;9.578;2023-06-10T05:34:10;9.67;;;5.60;;
3543;SDS011;1786;52.870;9.578;2023-06-10T05:36:37;9.47;;;5.50;;
3543;SDS011;1786;52.870;9.578;2023-06-10T05:39:03;10.67;;;5.33;;
3543;SDS011;1786;52.870;9.578;2023-06-10T05:41:30;7.20;;;6.10;;
3543;SDS011;1786;52.870;9.578;2023-06-10T05:43:57;8.10;;;5.67;;
3543;SDS011;1786;52.870;9.578;2023-06-10T05:46:24;10.20;;;5.20;;
3543;SDS011;1786;52.870;9.578;2023-06-10T05:48:50;6.23;;;5.57;;
3543;SDS011;1786;52.870;9.578;2023-06-10T05:51:17;16.20;;;5.83;;
3543;SDS011;1786;52.870;9.578;2023-06-10T05:53:44;8.50;;;5.20;;
3543;SDS011;1786;52.870;9.578;2023-06-10T05:56:13;8.43;;;5.23;;
3543;SDS011;1786;52.870;9.578;2023-06-10T05:58:41;10.40;;;4.80;;
3543;SDS011;1786;52.870;9.578;2023-06-10T06:01:07;7.43;;;5.37;;
3543;SDS011;1786;52.870;9.578;2023-06-10T06:03:34;7.47;;;5.37;;
3543;SDS011;1786;52.870;9.578;2023-06-10T06:06:02;7.60;;;5.80;;
3543;SDS011;1786;52.870;9.578;2023-06-10T06:08:29;5.67;;;5.17;;
3543;SDS011;1786;52.870;9.578;2023-06-10T06:10:56;5.67;;;5.00;;
3543;SDS011;1786;52.870;9.578;2023-06-10T06:13:23;6.50;;;5.07;;
3543;SDS011;1786;52.870;9.578;2023-06-10T06:15:50;12.00;;;5.63;;
3543;SDS011;1786;52.870;9.578;2023-06-10T06:18:17;8.60;;;5.13;;
3543;SDS011;1786;52.870;9.578;2023-06-10T06:20:45;8.63;;;5.00;;
3543;SDS011;1786;52.870;9.578;2023-06-10T06:23:12;6.87;;;5.40;;
3543;SDS011;1786;52.870;9.578;2023-06-10T06:25:38;7.00;;;4.70;;
3543;SDS011;1786;52.870;9.578;2023-06-10T06:28:06;7.50;;;4.10;;
3543;SDS011;1786;52.870;9.578;2023-06-10T06:30:33;4.90;;;4.23;;
3543;SDS011;1786;52.870;9.578;2023-06-10T06:33:01;4.73;;;4.33;;
3543;SDS011;1786;52.870;9.578;2023-06-10T06:35:30;4.73;;;4.20;;
3543;SDS011;1786;52.870;9.578;2023-06-10T06:38:00;4.90;;;4.37;;
3543;SDS011;1786;52.870;9.578;2023-06-10T06:40:28;5.90;;;4.43;;
3543;SDS011;1786;52.870;9.578;2023-06-10T06:42:55;5.00;;;3.87;;
3543;SDS011;1786;52.870;9.578;2023-06-10T06:45:34;9.83;;;4.43;;
3543;SDS011;1786;52.870;9.578;2023-06-10T06:48:04;6.00;;;3.90;;
3543;SDS011;1786;52.870;9.578;2023-06-10T06:50:31;4.63;;;3.80;;
3543;SDS011;1786;52.870;9.578;2023-06-10T06:52:58;4.67;;;3.73;;
3543;SDS011;1786;52.870;9.578;2023-06-10T06:55:25;6.40;;;3.20;;
3543;SDS011;1786;52.870;9.578;2023-06-10T06:57:52;4.72;;;3.97;;
3543;SDS011;1786;52.870;9.578;2023-06-10T07:00:19;8.10;;;4.60;;
3543;SDS011;1786;52.870;9.578;2023-06-10T07:02:46;4.97;;;3.90;;
3543;SDS011;1786;52.870;9.578;2023-06-10T07:05:13;5.97;;;3.85;;
3543;SDS011;1786;52.870;9.578;2023-06-10T07:07:39;5.28;;;3.58;;
3543;SDS011;1786;52.870;9.578;2023-06-10T07:10:07;4.15;;;3.47;;
3543;SDS011;1786;52.870;9.578;2023-06-10T07:12:34;5.15;;;4.03;;
3543;SDS011;1786;52.870;9.578;2023-06-10T07:15:01;5.30;;;3.30;;
3543;SDS011;1786;52.870;9.578;2023-06-10T07:17:28;9.25;;;4.22;;
3543;SDS011;1786;52.870;9.578;2023-06-10T07:19:55;12.20;;;4.50;;
3543;SDS011;1786;52.870;9.578;2023-06-10T07:22:24;5.78;;;4.30;;
3543;SDS011;1786;52.870;9.578;2023-06-10T07:24:51;7.38;;;3.63;;
3543;SDS011;1786;52.870;9.578;2023-06-10T07:27:18;11.95;;;3.80;;
3543;SDS011;1786;52.870;9.578;2023-06-10T07:29:45;3.40;;;3.15;;
3543;SDS011;1786;52.870;9.578;2023-06-10T07:32:12;4.88;;;3.65;;
3543;SDS011;1786;52.870;9.578;2023-06-10T07:34:39;4.85;;;4.35;;
3543;SDS011;1786;52.870;9.578;2023-06-10T07:37:06;4.97;;;3.70;;
3543;SDS011;1786;52.870;9.578;2023-06-10T07:39:34;5.65;;;3.67;;
3543;SDS011;1786;52.870;9.578;2023-06-10T07:42:01;10.88;;;4.65;;
3543;SDS011;1786;52.870;9.578;2023-06-10T07:44:28;10.05;;;3.35;;
3543;SDS011;1786;52.870;9.578;2023-06-10T07:46:55;5.75;;;3.67;;
3543;SDS011;1786;52.870;9.578;2023-06-10T07:49:22;5.72;;;4.38;;
3543;SDS011;1786;52.870;9.578;2023-06-10T07:51:49;5.78;;;3.13;;
3543;SDS011;1786;52.870;9.578;2023-06-10T07:54:16;17.02;;;4.20;;
3543;SDS011;1786;52.870;9.578;2023-06-10T07:56:43;8.77;;;3.30;;
3543;SDS011;1786;52.870;9.578;2023-06-10T07:59:10;6.82;;;4.07;;
3543;SDS011;1786;52.870;9.578;2023-06-10T08:01:36;14.10;;;4.32;;
3543;SDS011;1786;52.870;9.578;2023-06-10T08:04:05;20.92;;;3.92;;
3543;SDS011;1786;52.870;9.578;2023-06-10T08:06:33;9.32;;;4.25;;
3543;SDS011;1786;52.870;9.578;2023-06-10T08:09:00;5.28;;;4.32;;
3543;SDS011;1786;52.870;9.578;2023-06-10T08:11:26;9.52;;;4.53;;
3543;SDS011;1786;52.870;9.578;2023-06-10T08:13:55;5.35;;;3.47;;
3543;SDS011;1786;52.870;9.578;2023-06-10T08:16:22;4.93;;;3.70;;
3543;SDS011;1786;52.870;9.578;2023-06-10T08:18:49;4.00;;;3.60;;
3543;SDS011;1786;52.870;9.578;2023-06-10T08:21:20;5.40;;;4.20;;
3543;SDS011;1786;52.870;9.578;2023-06-10T08:23:47;11.03;;;4.70;;
3543;SDS011;1786;52.870;9.578;2023-06-10T08:26:14;9.03;;;3.90;;
3543;SDS011;1786;52.870;9.578;2023-06-10T08:28:41;4.27;;;3.60;;
3543;SDS011;1786;52.870;9.578;2023-06-10T08:31:08;6.20;;;3.30;;
3543;SDS011;1786;52.870;9.578;2023-06-10T08:33:35;7.80;;;4.17;;
3543;SDS011;1786;52.870;9.578;2023-06-10T08:36:02;6.30;;;3.80;;
3543;SDS011;1786;52.870;9.578;2023-06-10T08:38:28;10.77;;;3.57;;
3543;SDS011;1786;52.870;9.578;2023-06-10T08:40:59;4.60;;;3.90;;
3543;SDS011;1786;52.870;9.578;2023-06-10T08:45:58;9.43;;;3.53;;
3543;SDS011;1786;52.870;9.578;2023-06-10T08:48:31;6.33;;;4.30;;
3543;SDS011;1786;52.870;9.578;2023-06-10T08:51:03;9.50;;;4.00;;
3543;SDS011;1786;52.870;9.578;2023-06-10T08:53:31;6.43;;;3.30;;
3543;SDS011;1786;52.870;9.578;2023-06-10T08:56:02;8.77;;;3.90;;
3543;SDS011;1786;52.870;9.578;2023-06-10T08:58:33;4.13;;;3.73;;
3543;SDS011;1786;52.870;9.578;2023-06-10T09:01:07;16.67;;;3.90;;
3543;SDS011;1786;52.870;9.578;2023-06-10T09:03:39;4.53;;;3.40;;
3543;SDS011;1786;52.870;9.578;2023-06-10T09:06:08;3.70;;;3.40;;
3543;SDS011;1786;52.870;9.578;2023-06-10T09:08:36;3.37;;;3.17;;
3543;SDS011;1786;52.870;9.578;2023-06-10T09:11:04;4.93;;;3.70;;
3543;SDS011;1786;52.870;9.578;2023-06-10T09:13:31;4.00;;;3.60;;
3543;SDS011;1786;52.870;9.578;2023-06-10T09:15:58;4.23;;;3.40;;
3543;SDS011;1786;52.870;9.578;2023-06-10T09:18:28;11.20;;;3.37;;
3543;SDS011;1786;52.870;9.578;2023-06-10T09:20:55;7.77;;;4.70;;
3543;SDS011;1786;52.870;9.578;2023-06-10T09:23:21;6.83;;;3.77;;
3543;SDS011;1786;52.870;9.578;2023-06-10T09:25:55;13.73;;;3.90;;
3543;SDS011;1786;52.870;9.578;2023-06-10T09:28:25;3.30;;;3.10;;
3543;SDS011;1786;52.870;9.578;2023-06-10T09:31:05;4.00;;;3.60;;
3543;SDS011;1786;52.870;9.578;2023-06-10T09:33:39;6.43;;;3.10;;
3543;SDS011;1786;52.870;9.578;2023-06-10T09:36:06;7.33;;;3.40;;
3543;SDS011;1786;52.870;9.578;2023-06-10T09:38:33;4.13;;;3.73;;
3543;SDS011;1786;52.870;9.578;2023-06-10T09:41:01;10.00;;;4.20;;
3543;SDS011;1786;52.870;9.578;2023-06-10T09:43:39;4.93;;;3.53;;
3543;SDS011;1786;52.870;9.578;2023-06-10T09:46:14;6.33;;;3.70;;
3543;SDS011;1786;52.870;9.578;2023-06-10T09:48:45;6.03;;;3.53;;
3543;SDS011;1786;52.870;9.578;2023-06-10T09:51:13;11.40;;;2.90;;
3543;SDS011;1786;52.870;9.578;2023-06-10T09:53:42;14.73;;;4.30;;
3543;SDS011;1786;52.870;9.578;2023-06-10T09:56:09;3.50;;;3.20;;
3543;SDS011;1786;52.870;9.578;2023-06-10T09:58:38;5.00;;;3.30;;
3543;SDS011;1786;52.870;9.578;2023-06-10T10:01:10;4.73;;;3.23;;
3543;SDS011;1786;52.870;9.578;2023-06-10T10:06:16;3.03;;;2.70;;
3543;SDS011;1786;52.870;9.578;2023-06-10T10:08:45;3.67;;;3.37;;
3543;SDS011;1786;52.870;9.578;2023-06-10T10:11:14;4.60;;;3.37;;
3543;SDS011;1786;52.870;9.578;2023-06-10T10:13:44;12.10;;;3.77;;
3543;SDS011;1786;52.870;9.578;2023-06-10T10:16:14;6.68;;;3.30;;
3543;SDS011;1786;52.870;9.578;2023-06-10T10:18:49;6.90;;;3.20;;
3543;SDS011;1786;52.870;9.578;2023-06-10T10:21:24;7.38;;;3.35;;
3543;SDS011;1786;52.870;9.578;2023-06-10T10:24:01;3.60;;;3.05;;
3543;SDS011;1786;52.870;9.578;2023-06-10T10:26:31;3.10;;;2.90;;
3543;SDS011;1786;52.870;9.578;2023-06-10T10:32:08;18.58;;;3.50;;
3543;SDS011;1786;52.870;9.578;2023-06-10T10:34:42;3.70;;;3.40;;
3543;SDS011;1786;52.870;9.578;2023-06-10T10:37:17;3.45;;;3.15;;
3543;SDS011;1786;52.870;9.578;2023-06-10T10:39:44;5.03;;;2.80;;
3543;SDS011;1786;52.870;9.578;2023-06-10T10:42:11;3.38;;;3.08;;
3543;SDS011;1786;52.870;9.578;2023-06-10T10:44:39;6.32;;;3.17;;
3543;SDS011;1786;52.870;9.578;2023-06-10T10:47:08;6.60;;;3.03;;
3543;SDS011;1786;52.870;9.578;2023-06-10T10:49:37;5.38;;;3.33;;
3543;SDS011;1786;52.870;9.578;2023-06-10T10:52:04;10.45;;;2.92;;
3543;SDS011;1786;52.870;9.578;2023-06-10T10:54:35;2.88;;;2.58;;
3543;SDS011;1786;52.870;9.578;2023-06-10T10:57:11;3.10;;;2.88;;
3543;SDS011;1786;52.870;9.578;2023-06-10T10:59:43;7.38;;;4.00;;
3543;SDS011;1786;52.870;9.578;2023-06-10T11:02:18;4.35;;;3.40;;
3543;SDS011;1786;52.870;9.578;2023-06-10T11:04:58;9.60;;;3.65;;
3543;SDS011;1786;52.870;9.578;2023-06-10T11:07:27;6.00;;;4.55;;
3543;SDS011;1786;52.870;9.578;2023-06-10T11:09:57;13.75;;;4.00;;
3543;SDS011;1786;52.870;9.578;2023-06-10T11:15:12;17.90;;;3.65;;
3543;SDS011;1786;52.870;9.578;2023-06-10T11:23:24;8.85;;;5.20;;
3543;SDS011;1786;52.870;9.578;2023-06-10T11:28:41;10.63;;;3.90;;
3543;SDS011;1786;52.870;9.578;2023-06-10T11:31:29;13.18;;;3.90;;
3543;SDS011;1786;52.870;9.578;2023-06-10T11:34:23;22.42;;;4.43;;
3543;SDS011;1786;52.870;9.578;2023-06-10T11:36:54;12.07;;;4.43;;
3543;SDS011;1786;52.870;9.578;2023-06-10T11:39:23;13.48;;;5.00;;
3543;SDS011;1786;52.870;9.578;2023-06-10T11:41:51;11.95;;;4.88;;
3543;SDS011;1786;52.870;9.578;2023-06-10T11:44:19;8.30;;;4.88;;
3543;SDS011;1786;52.870;9.578;2023-06-10T11:46:49;9.57;;;4.18;;
3543;SDS011;1786;52.870;9.578;2023-06-10T11:49:16;6.07;;;4.90;;
3543;SDS011;1786;52.870;9.578;2023-06-10T11:51:43;9.68;;;3.90;;
3543;SDS011;1786;52.870;9.578;2023-06-10T11:54:19;4.90;;;4.40;;
3543;SDS011;1786;52.870;9.578;2023-06-10T11:56:46;7.00;;;3.60;;
3543;SDS011;1786;52.870;9.578;2023-06-10T11:59:13;3.72;;;3.45;;
3543;SDS011;1786;52.870;9.578;2023-06-10T12:01:44;6.07;;;3.83;;
3543;SDS011;1786;52.870;9.578;2023-06-10T12:04:12;4.53;;;2.65;;
3543;SDS011;1786;52.870;9.578;2023-06-10T12:06:44;4.35;;;3.17;;
3543;SDS011;1786;52.870;9.578;2023-06-10T12:12:00;3.60;;;2.75;;
3543;SDS011;1786;52.870;9.578;2023-06-10T12:19:59;4.97;;;3.83;;
3543;SDS011;1786;52.870;9.578;2023-06-10T12:22:27;10.90;;;3.28;;
3543;SDS011;1786;52.870;9.578;2023-06-10T12:25:03;4.10;;;3.70;;
3543;SDS011;1786;52.870;9.578;2023-06-10T12:27:34;8.23;;;3.60;;
3543;SDS011;1786;52.870;9.578;2023-06-10T12:30:02;4.63;;;3.63;;
3543;SDS011;1786;52.870;9.578;2023-06-10T12:32:44;6.20;;;3.28;;
3543;SDS011;1786;52.870;9.578;2023-06-10T12:35:18;3.60;;;3.33;;
3543;SDS011;1786;52.870;9.578;2023-06-10T12:40:30;3.67;;;3.38;;
3543;SDS011;1786;52.870;9.578;2023-06-10T12:42:59;6.75;;;3.67;;
3543;SDS011;1786;52.870;9.578;2023-06-10T12:45:30;6.20;;;2.97;;
3543;SDS011;1786;52.870;9.578;2023-06-10T12:50:40;3.78;;;3.50;;
3543;SDS011;1786;52.870;9.578;2023-06-10T12:53:09;5.35;;;2.95;;
3543;SDS011;1786;52.870;9.578;2023-06-10T12:55:37;4.43;;;3.55;;
3543;SDS011;1786;52.870;9.578;2023-06-10T12:58:05;10.52;;;4.00;;
3543;SDS011;1786;52.870;9.578;2023-06-10T13:00:31;3.80;;;3.50;;
3543;SDS011;1786;52.870;9.578;2023-06-10T13:03:01;4.35;;;3.78;;
3543;SDS011;1786;52.870;9.578;2023-06-10T13:05:28;3.50;;;3.33;;
3543;SDS011;1786;52.870;9.578;2023-06-10T13:07:56;4.95;;;3.78;;
3543;SDS011;1786;52.870;9.578;2023-06-10T13:10:23;5.70;;;3.85;;
3543;SDS011;1786;52.870;9.578;2023-06-10T13:12:52;6.15;;;3.92;;
3543;SDS011;1786;52.870;9.578;2023-06-10T13:15:19;4.07;;;3.67;;
3543;SDS011;1786;52.870;9.578;2023-06-10T13:17:46;4.45;;;4.05;;
3543;SDS011;1786;52.870;9.578;2023-06-10T13:20:17;8.13;;;4.18;;
3543;SDS011;1786;52.870;9.578;2023-06-10T13:22:45;8.38;;;3.90;;
3543;SDS011;1786;52.870;9.578;2023-06-10T13:25:15;4.40;;;3.90;;
3543;SDS011;1786;52.870;9.578;2023-06-10T13:27:42;5.63;;;4.97;;
3543;SDS011;1786;52.870;9.578;2023-06-10T13:30:10;8.90;;;4.25;;
3543;SDS011;1786;52.870;9.578;2023-06-10T13:32:38;4.75;;;4.35;;
3543;SDS011;1786;52.870;9.578;2023-06-10T13:35:06;4.53;;;4.07;;
3543;SDS011;1786;52.870;9.578;2023-06-10T13:37:34;4.35;;;4.05;;
3543;SDS011;1786;52.870;9.578;2023-06-10T13:40:01;4.97;;;4.68;;
3543;SDS011;1786;52.870;9.578;2023-06-10T13:42:29;4.28;;;3.95;;
3543;SDS011;1786;52.870;9.578;2023-06-10T13:44:56;3.90;;;3.60;;
3543;SDS011;1786;52.870;9.578;2023-06-10T13:47:23;10.40;;;5.20;;
3543;SDS011;1786;52.870;9.578;2023-06-10T13:49:50;6.22;;;4.57;;
3543;SDS011;1786;52.870;9.578;2023-06-10T13:52:17;5.18;;;4.47;;
3543;SDS011;1786;52.870;9.578;2023-06-10T13:54:44;5.18;;;4.68;;
3543;SDS011;1786;52.870;9.578;2023-06-10T13:57:11;4.43;;;4.13;;
3543;SDS011;1786;52.870;9.578;2023-06-10T13:59:38;6.70;;;4.40;;
3543;SDS011;1786;52.870;9.578;2023-06-10T14:02:04;4.65;;;4.35;;
3543;SDS011;1786;52.870;9.578;2023-06-10T14:04:31;6.82;;;5.25;;
3543;SDS011;1786;52.870;9.578;2023-06-10T14:06:58;4.97;;;4.57;;
3543;SDS011;1786;52.870;9.578;2023-06-10T14:09:25;6.85;;;4.95;;
3543;SDS011;1786;52.870;9.578;2023-06-10T14:11:52;5.28;;;4.53;;
3543;SDS011;1786;52.870;9.578;2023-06-10T14:14:18;4.80;;;4.38;;
3543;SDS011;1786;52.870;9.578;2023-06-10T14:16:45;5.45;;;4.65;;
3543;SDS011;1786;52.870;9.578;2023-06-10T14:19:12;9.13;;;5.00;;
3543;SDS011;1786;52.870;9.578;2023-06-10T14:21:40;5.60;;;4.72;;
3543;SDS011;1786;52.870;9.578;2023-06-10T14:24:07;8.13;;;4.65;;
3543;SDS011;1786;52.870;9.578;2023-06-10T14:26:34;4.90;;;4.32;;
3543;SDS011;1786;52.870;9.578;2023-06-10T14:29:01;7.10;;;5.38;;
3543;SDS011;1786;52.870;9.578;2023-06-10T14:31:29;4.90;;;4.50;;
3543;SDS011;1786;52.870;9.578;2023-06-10T14:33:56;5.25;;;4.80;;
3543;SDS011;1786;52.870;9.578;2023-06-10T14:36:23;7.20;;;4.88;;
3543;SDS011;1786;52.870;9.578;2023-06-10T14:38:49;5.93;;;5.40;;
3543;SDS011;1786;52.870;9.578;2023-06-10T14:41:16;5.07;;;4.75;;
3543;SDS011;1786;52.870;9.578;2023-06-10T14:43:43;10.55;;;4.90;;
3543;SDS011;1786;52.870;9.578;2023-06-10T14:46:10;5.28;;;4.63;;
3543;SDS011;1786;52.870;9.578;2023-06-10T14:48:37;5.20;;;4.70;;
3543;SDS011;1786;52.870;9.578;2023-06-10T14:51:04;6.38;;;4.70;;
3543;SDS011;1786;52.870;9.578;2023-06-10T14:53:31;9.02;;;5.78;;
3543;SDS011;1786;52.870;9.578;2023-06-10T14:55:57;5.43;;;4.72;;
3543;SDS011;1786;52.870;9.578;2023-06-10T14:58:24;9.77;;;5.20;;
3543;SDS011;1786;52.870;9.578;2023-06-10T15:00:51;8.70;;;4.95;;
3543;SDS011;1786;52.870;9.578;2023-06-10T15:03:18;7.22;;;4.60;;
3543;SDS011;1786;52.870;9.578;2023-06-10T15:05:48;9.32;;;5.10;;
3543;SDS011;1786;52.870;9.578;2023-06-10T15:08:15;5.65;;;5.10;;
3543;SDS011;1786;52.870;9.578;2023-06-10T15:10:42;5.82;;;5.32;;
3543;SDS011;1786;52.870;9.578;2023-06-10T15:13:09;5.35;;;4.95;;
3543;SDS011;1786;52.870;9.578;2023-06-10T15:15:36;14.55;;;5.28;;
3543;SDS011;1786;52.870;9.578;2023-06-10T15:18:02;8.23;;;4.50;;
3543;SDS011;1786;52.870;9.578;2023-06-10T15:20:29;5.65;;;4.75;;
3543;SDS011;1786;52.870;9.578;2023-06-10T15:22:56;5.82;;;5.25;;
3543;SDS011;1786;52.870;9.578;2023-06-10T15:25:23;7.60;;;4.93;;
3543;SDS011;1786;52.870;9.578;2023-06-10T15:27:57;12.98;;;5.38;;
3543;SDS011;1786;52.870;9.578;2023-06-10T15:30:25;7.22;;;5.78;;
3543;SDS011;1786;52.870;9.578;2023-06-10T15:32:52;11.77;;;5.28;;
3543;SDS011;1786;52.870;9.578;2023-06-10T15:35:19;5.57;;;5.05;;
3543;SDS011;1786;52.870;9.578;2023-06-10T15:37:46;4.88;;;4.57;;
3543;SDS011;1786;52.870;9.578;2023-06-10T15:40:12;4.68;;;4.30;;
3543;SDS011;1786;52.870;9.578;2023-06-10T15:42:39;9.25;;;5.75;;
3543;SDS011;1786;52.870;9.578;2023-06-10T15:45:07;5.63;;;4.75;;
3543;SDS011;1786;52.870;9.578;2023-06-10T15:47:34;9.75;;;4.72;;
3543;SDS011;1786;52.870;9.578;2023-06-10T15:50:01;4.93;;;4.63;;
3543;SDS011;1786;52.870;9.578;2023-06-10T15:52:28;5.85;;;5.30;;
3543;SDS011;1786;52.870;9.578;2023-06-10T15:54:55;7.97;;;5.55;;